sensor_id;sensor_type;location;lat;lon;timestamp;P1;durP1;ratioP1;P2;durP2;ratioP2
79124;SDS011;68527;39.470;-0.376;2023-05-21T00:00:57;9.70;;;5.00;;
79124;SDS011;68527;39.470;-0.376;2023-05-21T00:03:23;6.50;;;4.30;;
79124;SDS011;68527;39.470;-0.376;2023-05-21T00:05:51;8.60;;;4.60;;
79124;SDS011;68527;39.470;-0.376;2023-05-21T00:08:16;8.10;;;4.60;;
79124;SDS011;68527;39.470;-0.376;2023-05-21T00:13:07;6.40;;;4.60;;
79124;SDS011;68527;39.470;-0.376;2023-05-21T00:15:34;6.20;;;4.20;;
79124;SDS011;68527;39.470;-0.376;2023-05-21T00:18:00;7.70;;;4.20;;
79124;SDS011;68527;39.470;-0.376;2023-05-21T00:20:26;6.30;;;4.30;;
79124;SDS011;68527;39.470;-0.376;2023-05-21T00:22:53;5.00;;;4.00;;
79124;SDS011;68527;39.470;-0.376;2023-05-21T00:25:19;9.00;;;4.20;;
79124;SDS011;68527;39.470;-0.376;2023-05-21T00:27:45;5.70;;;4.40;;
79124;SDS011;68527;39.470;-0.376;2023-05-21T00:30:10;5.50;;;4.30;;
79124;SDS011;68527;39.470;-0.376;2023-05-21T00:32:36;7.10;;;4.30;;
79124;SDS011;68527;39.470;-0.376;2023-05-21T00:35:02;8.30;;;4.40;;
79124;SDS011;68527;39.470;-0.376;2023-05-21T00:37:28;5.10;;;4.30;;
79124;SDS011;68527;39.470;-0.376;2023-05-21T00:39:58;6.10;;;4.10;;
79124;SDS011;68527;39.470;-0.376;2023-05-21T00:42:25;7.50;;;4.00;;
79124;SDS011;68527;39.470;-0.376;2023-05-21T00:44:51;5.40;;;3.90;;
79124;SDS011;68527;39.470;-0.376;2023-05-21T00:47:18;5.10;;;4.30;;
79124;SDS011;68527;39.470;-0.376;2023-05-21T00:49:45;6.00;;;4.40;;
79124;SDS011;68527;39.470;-0.376;2023-05-21T00:52:12;4.90;;;3.90;;
79124;SDS011;68527;39.470;-0.376;2023-05-21T00:54:39;5.30;;;4.20;;
79124;SDS011;68527;39.470;-0.376;2023-05-21T00:57:05;6.20;;;3.80;;
79124;SDS011;68527;39.470;-0.376;2023-05-21T00:59:31;5.40;;;4.50;;
79124;SDS011;68527;39.470;-0.376;2023-05-21T01:01:57;6.30;;;4.40;;
79124;SDS011;68527;39.470;-0.376;2023-05-21T01:04:28;5.70;;;4.20;;
79124;SDS011;68527;39.470;-0.376;2023-05-21T01:06:55;8.10;;;4.40;;
79124;SDS011;68527;39.470;-0.376;2023-05-21T01:09:23;4.90;;;3.80;;
79124;SDS011;68527;39.470;-0.376;2023-05-21T01:11:50;5.40;;;4.20;;
79124;SDS011;68527;39.470;-0.376;2023-05-21T01:14:16;6.30;;;4.30;;
79124;SDS011;68527;39.470;-0.376;2023-05-21T01:16:43;6.00;;;4.00;;
79124;SDS011;68527;39.470;-0.376;2023-05-21T01:19:13;6.20;;;3.80;;
79124;SDS011;68527;39.470;-0.376;2023-05-21T01:21:41;6.30;;;3.90;;
79124;SDS011;68527;39.470;-0.376;2023-05-21T01:24:09;5.10;;;4.00;;
79124;SDS011;68527;39.470;-0.376;2023-05-21T01:26:35;5.00;;;3.90;;
79124;SDS011;68527;39.470;-0.376;2023-05-21T01:29:04;5.50;;;3.90;;
79124;SDS011;68527;39.470;-0.376;2023-05-21T01:31:39;6.30;;;3.80;;
79124;SDS011;68527;39.470;-0.376;2023-05-21T01:34:10;4.40;;;3.60;;
79124;SDS011;68527;39.470;-0.376;2023-05-21T01:36:40;4.90;;;3.70;;
79124;SDS011;68527;39.470;-0.376;2023-05-21T01:39:28;6.20;;;4.00;;
79124;SDS011;68527;39.470;-0.376;2023-05-21T01:42:01;5.10;;;3.60;;
79124;SDS011;68527;39.470;-0.376;2023-05-21T01:44:27;5.70;;;3.70;;
79124;SDS011;68527;39.470;-0.376;2023-05-21T01:46:54;5.30;;;4.40;;
79124;SDS011;68527;39.470;-0.376;2023-05-21T01:49:21;4.90;;;4.10;;
79124;SDS011;68527;39.470;-0.376;2023-05-21T01:51:47;5.00;;;3.70;;
79124;SDS011;68527;39.470;-0.376;2023-05-21T01:54:12;5.90;;;3.80;;
79124;SDS011;68527;39.470;-0.376;2023-05-21T01:56:38;5.90;;;3.90;;
79124;SDS011;68527;39.470;-0.376;2023-05-21T01:59:04;4.30;;;3.70;;
79124;SDS011;68527;39.470;-0.376;2023-05-21T02:01:29;5.10;;;3.70;;
79124;SDS011;68527;39.470;-0.376;2023-05-21T02:06:21;5.30;;;3.80;;
79124;SDS011;68527;39.470;-0.376;2023-05-21T02:08:47;4.80;;;3.30;;
79124;SDS011;68527;39.470;-0.376;2023-05-21T02:13:38;4.90;;;3.30;;
79124;SDS011;68527;39.470;-0.376;2023-05-21T02:16:06;4.30;;;3.70;;
79124;SDS011;68527;39.470;-0.376;2023-05-21T02:18:36;6.60;;;3.70;;
79124;SDS011;68527;39.470;-0.376;2023-05-21T02:21:02;4.70;;;3.60;;
79124;SDS011;68527;39.470;-0.376;2023-05-21T02:23:28;4.50;;;3.80;;
79124;SDS011;68527;39.470;-0.376;2023-05-21T02:28:19;4.30;;;3.40;;
79124;SDS011;68527;39.470;-0.376;2023-05-21T02:30:45;4.40;;;3.60;;
79124;SDS011;68527;39.470;-0.376;2023-05-21T02:33:11;6.40;;;3.80;;
79124;SDS011;68527;39.470;-0.376;2023-05-21T02:35:38;6.10;;;3.60;;
79124;SDS011;68527;39.470;-0.376;2023-05-21T02:38:04;5.40;;;3.40;;
79124;SDS011;68527;39.470;-0.376;2023-05-21T02:42:56;5.20;;;3.60;;
79124;SDS011;68527;39.470;-0.376;2023-05-21T02:47:47;4.50;;;3.20;;
79124;SDS011;68527;39.470;-0.376;2023-05-21T02:50:13;4.10;;;3.50;;
79124;SDS011;68527;39.470;-0.376;2023-05-21T02:52:39;4.70;;;3.60;;
79124;SDS011;68527;39.470;-0.376;2023-05-21T02:55:05;6.40;;;3.90;;
79124;SDS011;68527;39.470;-0.376;2023-05-21T02:57:31;5.30;;;3.90;;
79124;SDS011;68527;39.470;-0.376;2023-05-21T03:02:22;4.50;;;3.40;;
79124;SDS011;68527;39.470;-0.376;2023-05-21T03:04:48;4.60;;;3.30;;
79124;SDS011;68527;39.470;-0.376;2023-05-21T03:07:15;5.90;;;3.60;;
79124;SDS011;68527;39.470;-0.376;2023-05-21T03:09:44;5.30;;;4.10;;
79124;SDS011;68527;39.470;-0.376;2023-05-21T03:12:10;4.70;;;3.60;;
79124;SDS011;68527;39.470;-0.376;2023-05-21T03:17:01;4.90;;;3.30;;
79124;SDS011;68527;39.470;-0.376;2023-05-21T03:19:32;5.10;;;3.50;;
79124;SDS011;68527;39.470;-0.376;2023-05-21T03:22:00;4.60;;;3.60;;
79124;SDS011;68527;39.470;-0.376;2023-05-21T03:24:26;5.20;;;3.60;;
79124;SDS011;68527;39.470;-0.376;2023-05-21T03:26:54;4.20;;;3.10;;
79124;SDS011;68527;39.470;-0.376;2023-05-21T03:29:20;4.20;;;3.60;;
79124;SDS011;68527;39.470;-0.376;2023-05-21T03:34:11;6.20;;;3.40;;
79124;SDS011;68527;39.470;-0.376;2023-05-21T03:36:37;5.40;;;3.60;;
79124;SDS011;68527;39.470;-0.376;2023-05-21T03:39:02;3.90;;;3.40;;
79124;SDS011;68527;39.470;-0.376;2023-05-21T03:41:28;4.20;;;3.00;;
79124;SDS011;68527;39.470;-0.376;2023-05-21T03:43:54;5.90;;;3.50;;
79124;SDS011;68527;39.470;-0.376;2023-05-21T03:46:19;5.40;;;3.50;;
79124;SDS011;68527;39.470;-0.376;2023-05-21T03:48:45;5.50;;;3.30;;
79124;SDS011;68527;39.470;-0.376;2023-05-21T03:53:37;3.80;;;2.80;;
79124;SDS011;68527;39.470;-0.376;2023-05-21T03:56:03;4.20;;;3.10;;
79124;SDS011;68527;39.470;-0.376;2023-05-21T03:58:29;5.20;;;3.30;;
79124;SDS011;68527;39.470;-0.376;2023-05-21T04:00:55;5.10;;;3.10;;
79124;SDS011;68527;39.470;-0.376;2023-05-21T04:03:20;7.10;;;3.50;;
79124;SDS011;68527;39.470;-0.376;2023-05-21T04:05:46;4.80;;;3.60;;
79124;SDS011;68527;39.470;-0.376;2023-05-21T04:08:13;4.30;;;3.20;;
79124;SDS011;68527;39.470;-0.376;2023-05-21T04:10:40;4.40;;;3.10;;
79124;SDS011;68527;39.470;-0.376;2023-05-21T04:15:30;4.30;;;3.40;;
79124;SDS011;68527;39.470;-0.376;2023-05-21T04:17:58;3.30;;;2.80;;
79124;SDS011;68527;39.470;-0.376;2023-05-21T04:20:24;4.60;;;3.50;;
79124;SDS011;68527;39.470;-0.376;2023-05-21T04:22:50;4.70;;;3.10;;
79124;SDS011;68527;39.470;-0.376;2023-05-21T04:25:16;5.20;;;3.60;;
79124;SDS011;68527;39.470;-0.376;2023-05-21T04:27:42;4.00;;;2.90;;
79124;SDS011;68527;39.470;-0.376;2023-05-21T04:30:11;4.10;;;3.30;;
79124;SDS011;68527;39.470;-0.376;2023-05-21T04:32:37;5.20;;;3.40;;
79124;SDS011;68527;39.470;-0.376;2023-05-21T04:35:03;4.10;;;3.50;;
79124;SDS011;68527;39.470;-0.376;2023-05-21T04:37:29;4.60;;;3.30;;
79124;SDS011;68527;39.470;-0.376;2023-05-21T04:39:59;4.60;;;3.20;;
79124;SDS011;68527;39.470;-0.376;2023-05-21T04:42:25;5.60;;;3.20;;
79124;SDS011;68527;39.470;-0.376;2023-05-21T04:44:51;4.90;;;3.50;;
79124;SDS011;68527;39.470;-0.376;2023-05-21T04:47:19;4.10;;;3.20;;
79124;SDS011;68527;39.470;-0.376;2023-05-21T04:49:45;5.60;;;3.10;;
79124;SDS011;68527;39.470;-0.376;2023-05-21T04:52:11;4.40;;;3.40;;
79124;SDS011;68527;39.470;-0.376;2023-05-21T04:54:37;6.10;;;2.90;;
79124;SDS011;68527;39.470;-0.376;2023-05-21T04:57:05;4.40;;;3.20;;
79124;SDS011;68527;39.470;-0.376;2023-05-21T04:59:31;4.40;;;2.90;;
79124;SDS011;68527;39.470;-0.376;2023-05-21T05:04:22;4.70;;;3.20;;
79124;SDS011;68527;39.470;-0.376;2023-05-21T05:06:48;4.40;;;3.00;;
79124;SDS011;68527;39.470;-0.376;2023-05-21T05:09:14;4.40;;;3.20;;
79124;SDS011;68527;39.470;-0.376;2023-05-21T05:11:40;4.20;;;3.00;;
79124;SDS011;68527;39.470;-0.376;2023-05-21T05:14:05;4.60;;;3.50;;
79124;SDS011;68527;39.470;-0.376;2023-05-21T05:16:31;3.80;;;3.00;;
79124;SDS011;68527;39.470;-0.376;2023-05-21T05:18:58;3.80;;;2.80;;
79124;SDS011;68527;39.470;-0.376;2023-05-21T05:21:23;3.50;;;2.90;;
79124;SDS011;68527;39.470;-0.376;2023-05-21T05:23:49;5.10;;;3.20;;
79124;SDS011;68527;39.470;-0.376;2023-05-21T05:26:15;6.00;;;3.20;;
79124;SDS011;68527;39.470;-0.376;2023-05-21T05:31:06;3.50;;;2.50;;
79124;SDS011;68527;39.470;-0.376;2023-05-21T05:33:32;4.70;;;3.00;;
79124;SDS011;68527;39.470;-0.376;2023-05-21T05:38:24;4.40;;;3.10;;
79124;SDS011;68527;39.470;-0.376;2023-05-21T05:40:50;3.80;;;3.20;;
79124;SDS011;68527;39.470;-0.376;2023-05-21T05:43:15;4.30;;;2.90;;
79124;SDS011;68527;39.470;-0.376;2023-05-21T05:48:06;5.10;;;2.90;;
79124;SDS011;68527;39.470;-0.376;2023-05-21T05:52:57;5.60;;;2.60;;
79124;SDS011;68527;39.470;-0.376;2023-05-21T05:55:23;3.60;;;2.70;;
79124;SDS011;68527;39.470;-0.376;2023-05-21T05:57:50;5.00;;;3.20;;
79124;SDS011;68527;39.470;-0.376;2023-05-21T06:00:16;3.40;;;2.80;;
79124;SDS011;68527;39.470;-0.376;2023-05-21T06:02:42;3.90;;;2.80;;
79124;SDS011;68527;39.470;-0.376;2023-05-21T06:05:08;3.20;;;2.60;;
79124;SDS011;68527;39.470;-0.376;2023-05-21T06:07:38;4.30;;;2.90;;
79124;SDS011;68527;39.470;-0.376;2023-05-21T06:10:05;4.20;;;2.80;;
79124;SDS011;68527;39.470;-0.376;2023-05-21T06:12:31;4.80;;;2.70;;
79124;SDS011;68527;39.470;-0.376;2023-05-21T06:14:57;3.90;;;2.90;;
79124;SDS011;68527;39.470;-0.376;2023-05-21T06:17:22;3.70;;;2.90;;
79124;SDS011;68527;39.470;-0.376;2023-05-21T06:19:48;4.30;;;3.10;;
79124;SDS011;68527;39.470;-0.376;2023-05-21T06:24:39;4.60;;;2.70;;
79124;SDS011;68527;39.470;-0.376;2023-05-21T06:29:30;3.70;;;2.60;;
79124;SDS011;68527;39.470;-0.376;2023-05-21T06:31:55;4.20;;;3.00;;
79124;SDS011;68527;39.470;-0.376;2023-05-21T06:34:21;4.40;;;2.90;;
79124;SDS011;68527;39.470;-0.376;2023-05-21T06:39:12;4.30;;;2.60;;
79124;SDS011;68527;39.470;-0.376;2023-05-21T06:41:38;4.00;;;2.70;;
79124;SDS011;68527;39.470;-0.376;2023-05-21T06:46:29;3.60;;;2.60;;
79124;SDS011;68527;39.470;-0.376;2023-05-21T06:48:55;3.30;;;2.80;;
79124;SDS011;68527;39.470;-0.376;2023-05-21T06:51:21;5.20;;;2.70;;
79124;SDS011;68527;39.470;-0.376;2023-05-21T06:53:47;4.10;;;2.70;;
79124;SDS011;68527;39.470;-0.376;2023-05-21T06:58:37;3.50;;;2.30;;
79124;SDS011;68527;39.470;-0.376;2023-05-21T07:01:03;4.30;;;3.00;;
79124;SDS011;68527;39.470;-0.376;2023-05-21T07:03:29;3.70;;;2.80;;
79124;SDS011;68527;39.470;-0.376;2023-05-21T07:05:55;5.30;;;2.90;;
79124;SDS011;68527;39.470;-0.376;2023-05-21T07:08:21;3.70;;;2.70;;
79124;SDS011;68527;39.470;-0.376;2023-05-21T07:10:47;3.40;;;2.60;;
79124;SDS011;68527;39.470;-0.376;2023-05-21T07:13:14;4.60;;;2.70;;
79124;SDS011;68527;39.470;-0.376;2023-05-21T07:15:40;4.30;;;3.00;;
79124;SDS011;68527;39.470;-0.376;2023-05-21T07:18:06;3.50;;;2.80;;
79124;SDS011;68527;39.470;-0.376;2023-05-21T07:20:31;3.70;;;3.00;;
79124;SDS011;68527;39.470;-0.376;2023-05-21T07:22:57;3.40;;;2.60;;
79124;SDS011;68527;39.470;-0.376;2023-05-21T07:25:22;3.80;;;2.70;;
79124;SDS011;68527;39.470;-0.376;2023-05-21T07:27:48;3.80;;;2.50;;
79124;SDS011;68527;39.470;-0.376;2023-05-21T07:30:14;3.30;;;2.50;;
79124;SDS011;68527;39.470;-0.376;2023-05-21T07:32:40;3.30;;;2.60;;
79124;SDS011;68527;39.470;-0.376;2023-05-21T07:35:05;3.20;;;2.50;;
79124;SDS011;68527;39.470;-0.376;2023-05-21T07:37:31;8.10;;;2.80;;
79124;SDS011;68527;39.470;-0.376;2023-05-21T07:39:57;3.30;;;2.10;;
79124;SDS011;68527;39.470;-0.376;2023-05-21T07:42:23;6.90;;;2.70;;
79124;SDS011;68527;39.470;-0.376;2023-05-21T07:44:49;3.40;;;2.60;;
79124;SDS011;68527;39.470;-0.376;2023-05-21T07:47:14;4.30;;;2.90;;
79124;SDS011;68527;39.470;-0.376;2023-05-21T07:49:40;4.70;;;2.90;;
79124;SDS011;68527;39.470;-0.376;2023-05-21T07:52:05;4.70;;;2.80;;
79124;SDS011;68527;39.470;-0.376;2023-05-21T07:54:31;3.30;;;2.80;;
79124;SDS011;68527;39.470;-0.376;2023-05-21T07:56:57;7.10;;;3.10;;
79124;SDS011;68527;39.470;-0.376;2023-05-21T08:01:48;5.80;;;2.80;;
79124;SDS011;68527;39.470;-0.376;2023-05-21T08:04:14;6.40;;;2.40;;
79124;SDS011;68527;39.470;-0.376;2023-05-21T08:06:39;6.00;;;3.10;;
79124;SDS011;68527;39.470;-0.376;2023-05-21T08:09:05;4.00;;;2.60;;
79124;SDS011;68527;39.470;-0.376;2023-05-21T08:11:30;4.00;;;2.30;;
79124;SDS011;68527;39.470;-0.376;2023-05-21T08:13:56;4.20;;;2.60;;
79124;SDS011;68527;39.470;-0.376;2023-05-21T08:16:22;6.80;;;2.80;;
79124;SDS011;68527;39.470;-0.376;2023-05-21T08:18:48;5.80;;;2.50;;
79124;SDS011;68527;39.470;-0.376;2023-05-21T08:21:14;6.30;;;2.60;;
79124;SDS011;68527;39.470;-0.376;2023-05-21T08:23:41;6.90;;;2.90;;
79124;SDS011;68527;39.470;-0.376;2023-05-21T08:26:07;4.00;;;2.80;;
79124;SDS011;68527;39.470;-0.376;2023-05-21T08:28:32;3.40;;;2.40;;
79124;SDS011;68527;39.470;-0.376;2023-05-21T08:31:00;5.10;;;2.70;;
79124;SDS011;68527;39.470;-0.376;2023-05-21T08:33:26;6.30;;;2.50;;
79124;SDS011;68527;39.470;-0.376;2023-05-21T08:35:52;4.80;;;2.60;;
79124;SDS011;68527;39.470;-0.376;2023-05-21T08:38:17;6.00;;;3.10;;
79124;SDS011;68527;39.470;-0.376;2023-05-21T08:40:44;6.30;;;2.60;;
79124;SDS011;68527;39.470;-0.376;2023-05-21T08:43:10;3.20;;;2.50;;
79124;SDS011;68527;39.470;-0.376;2023-05-21T08:45:40;4.60;;;2.60;;
79124;SDS011;68527;39.470;-0.376;2023-05-21T08:48:07;4.10;;;2.40;;
79124;SDS011;68527;39.470;-0.376;2023-05-21T08:50:35;4.00;;;2.50;;
79124;SDS011;68527;39.470;-0.376;2023-05-21T08:53:01;4.80;;;2.70;;
79124;SDS011;68527;39.470;-0.376;2023-05-21T08:55:27;4.40;;;2.70;;
79124;SDS011;68527;39.470;-0.376;2023-05-21T08:57:52;4.70;;;2.40;;
79124;SDS011;68527;39.470;-0.376;2023-05-21T09:00:19;6.40;;;2.60;;
79124;SDS011;68527;39.470;-0.376;2023-05-21T09:02:45;3.80;;;2.20;;
79124;SDS011;68527;39.470;-0.376;2023-05-21T09:05:11;3.80;;;2.30;;
79124;SDS011;68527;39.470;-0.376;2023-05-21T09:08:20;3.70;;;2.50;;
79124;SDS011;68527;39.470;-0.376;2023-05-21T09:10:35;4.10;;;2.40;;
79124;SDS011;68527;39.470;-0.376;2023-05-21T09:13:01;4.60;;;2.20;;
79124;SDS011;68527;39.470;-0.376;2023-05-21T09:15:27;5.20;;;2.30;;
79124;SDS011;68527;39.470;-0.376;2023-05-21T09:17:53;4.40;;;2.50;;
79124;SDS011;68527;39.470;-0.376;2023-05-21T09:20:23;3.30;;;2.50;;
79124;SDS011;68527;39.470;-0.376;2023-05-21T09:22:50;3.30;;;2.40;;
79124;SDS011;68527;39.470;-0.376;2023-05-21T09:25:19;3.60;;;2.20;;
79124;SDS011;68527;39.470;-0.376;2023-05-21T09:30:14;4.30;;;2.70;;
79124;SDS011;68527;39.470;-0.376;2023-05-21T09:32:42;2.90;;;2.00;;
79124;SDS011;68527;39.470;-0.376;2023-05-21T09:35:09;4.90;;;2.50;;
79124;SDS011;68527;39.470;-0.376;2023-05-21T09:37:57;4.10;;;2.30;;
79124;SDS011;68527;39.470;-0.376;2023-05-21T09:40:22;4.80;;;2.20;;
79124;SDS011;68527;39.470;-0.376;2023-05-21T09:45:17;4.00;;;2.50;;
79124;SDS011;68527;39.470;-0.376;2023-05-21T09:47:44;3.60;;;2.30;;
79124;SDS011;68527;39.470;-0.376;2023-05-21T09:50:22;3.60;;;2.50;;
79124;SDS011;68527;39.470;-0.376;2023-05-21T09:52:49;5.90;;;2.40;;
79124;SDS011;68527;39.470;-0.376;2023-05-21T09:55:17;3.80;;;2.50;;
79124;SDS011;68527;39.470;-0.376;2023-05-21T09:57:47;3.00;;;2.40;;
79124;SDS011;68527;39.470;-0.376;2023-05-21T10:00:20;4.60;;;2.60;;
79124;SDS011;68527;39.470;-0.376;2023-05-21T10:02:47;3.70;;;2.30;;
79124;SDS011;68527;39.470;-0.376;2023-05-21T10:05:15;5.10;;;2.40;;
79124;SDS011;68527;39.470;-0.376;2023-05-21T10:07:41;2.90;;;2.30;;
79124;SDS011;68527;39.470;-0.376;2023-05-21T10:10:13;3.90;;;2.40;;
79124;SDS011;68527;39.470;-0.376;2023-05-21T10:12:42;3.00;;;2.30;;
79124;SDS011;68527;39.470;-0.376;2023-05-21T10:15:11;4.00;;;2.30;;
79124;SDS011;68527;39.470;-0.376;2023-05-21T10:17:39;4.10;;;2.30;;
79124;SDS011;68527;39.470;-0.376;2023-05-21T10:20:06;3.30;;;2.10;;
79124;SDS011;68527;39.470;-0.376;2023-05-21T10:22:34;5.00;;;2.30;;
79124;SDS011;68527;39.470;-0.376;2023-05-21T10:25:00;4.30;;;2.30;;
79124;SDS011;68527;39.470;-0.376;2023-05-21T10:27:28;3.10;;;2.20;;
79124;SDS011;68527;39.470;-0.376;2023-05-21T10:29:55;3.50;;;1.90;;
79124;SDS011;68527;39.470;-0.376;2023-05-21T10:32:21;3.40;;;2.30;;
79124;SDS011;68527;39.470;-0.376;2023-05-21T10:34:47;3.00;;;2.00;;
79124;SDS011;68527;39.470;-0.376;2023-05-21T10:37:12;3.00;;;2.40;;
79124;SDS011;68527;39.470;-0.376;2023-05-21T10:39:39;3.40;;;2.10;;
79124;SDS011;68527;39.470;-0.376;2023-05-21T10:42:25;2.50;;;2.10;;
79124;SDS011;68527;39.470;-0.376;2023-05-21T11:01:42;5.30;;;2.10;;
79124;SDS011;68527;39.470;-0.376;2023-05-21T11:04:09;2.90;;;2.30;;
79124;SDS011;68527;39.470;-0.376;2023-05-21T11:06:36;2.50;;;1.70;;
79124;SDS011;68527;39.470;-0.376;2023-05-21T11:09:10;3.10;;;2.20;;
79124;SDS011;68527;39.470;-0.376;2023-05-21T11:11:39;3.50;;;2.40;;
79124;SDS011;68527;39.470;-0.376;2023-05-21T11:16:57;3.70;;;2.40;;
79124;SDS011;68527;39.470;-0.376;2023-05-21T11:19:33;4.50;;;2.40;;
79124;SDS011;68527;39.470;-0.376;2023-05-21T11:22:02;3.00;;;2.20;;
79124;SDS011;68527;39.470;-0.376;2023-05-21T11:24:30;4.20;;;2.70;;
79124;SDS011;68527;39.470;-0.376;2023-05-21T11:29:35;3.70;;;2.40;;
79124;SDS011;68527;39.470;-0.376;2023-05-21T11:32:05;5.80;;;2.40;;
79124;SDS011;68527;39.470;-0.376;2023-05-21T11:34:44;2.50;;;1.90;;
79124;SDS011;68527;39.470;-0.376;2023-05-21T11:39:46;4.20;;;2.50;;
79124;SDS011;68527;39.470;-0.376;2023-05-21T11:42:12;5.70;;;2.10;;
79124;SDS011;68527;39.470;-0.376;2023-05-21T11:44:47;5.40;;;2.60;;
79124;SDS011;68527;39.470;-0.376;2023-05-21T11:47:14;4.60;;;2.50;;
79124;SDS011;68527;39.470;-0.376;2023-05-21T11:49:42;4.10;;;2.40;;
79124;SDS011;68527;39.470;-0.376;2023-05-21T11:52:08;2.60;;;2.10;;
79124;SDS011;68527;39.470;-0.376;2023-05-21T11:57:10;2.90;;;2.10;;
79124;SDS011;68527;39.470;-0.376;2023-05-21T11:59:36;6.90;;;2.80;;
79124;SDS011;68527;39.470;-0.376;2023-05-21T12:02:03;3.30;;;2.30;;
79124;SDS011;68527;39.470;-0.376;2023-05-21T12:04:32;4.40;;;2.50;;
79124;SDS011;68527;39.470;-0.376;2023-05-21T12:07:04;4.10;;;2.60;;
79124;SDS011;68527;39.470;-0.376;2023-05-21T12:12:05;3.70;;;2.50;;
79124;SDS011;68527;39.470;-0.376;2023-05-21T12:14:33;4.70;;;2.50;;
79124;SDS011;68527;39.470;-0.376;2023-05-21T12:16:59;5.10;;;2.90;;
79124;SDS011;68527;39.470;-0.376;2023-05-21T12:19:25;4.40;;;2.50;;
79124;SDS011;68527;39.470;-0.376;2023-05-21T12:21:50;3.10;;;2.80;;
79124;SDS011;68527;39.470;-0.376;2023-05-21T12:24:16;5.10;;;2.90;;
79124;SDS011;68527;39.470;-0.376;2023-05-21T12:26:42;4.40;;;3.10;;
79124;SDS011;68527;39.470;-0.376;2023-05-21T12:29:09;4.20;;;2.80;;
79124;SDS011;68527;39.470;-0.376;2023-05-21T12:31:45;4.00;;;3.00;;
79124;SDS011;68527;39.470;-0.376;2023-05-21T12:34:14;4.80;;;3.10;;
79124;SDS011;68527;39.470;-0.376;2023-05-21T12:36:43;4.60;;;2.90;;
79124;SDS011;68527;39.470;-0.376;2023-05-21T12:39:15;4.40;;;3.00;;
79124;SDS011;68527;39.470;-0.376;2023-05-21T12:41:41;5.70;;;3.50;;
79124;SDS011;68527;39.470;-0.376;2023-05-21T12:44:08;4.60;;;2.90;;
79124;SDS011;68527;39.470;-0.376;2023-05-21T12:46:34;4.60;;;2.90;;
79124;SDS011;68527;39.470;-0.376;2023-05-21T12:49:00;4.00;;;3.20;;
79124;SDS011;68527;39.470;-0.376;2023-05-21T12:51:36;5.00;;;3.70;;
79124;SDS011;68527;39.470;-0.376;2023-05-21T12:54:03;5.40;;;3.40;;
79124;SDS011;68527;39.470;-0.376;2023-05-21T12:56:28;5.80;;;3.40;;
79124;SDS011;68527;39.470;-0.376;2023-05-21T12:59:11;5.40;;;3.20;;
79124;SDS011;68527;39.470;-0.376;2023-05-21T13:01:38;7.30;;;3.70;;
79124;SDS011;68527;39.470;-0.376;2023-05-21T13:04:04;5.00;;;3.70;;
79124;SDS011;68527;39.470;-0.376;2023-05-21T13:06:40;5.40;;;3.60;;
79124;SDS011;68527;39.470;-0.376;2023-05-21T13:09:08;6.80;;;4.20;;
79124;SDS011;68527;39.470;-0.376;2023-05-21T13:11:35;7.10;;;4.60;;
79124;SDS011;68527;39.470;-0.376;2023-05-21T13:14:00;5.50;;;3.80;;
79124;SDS011;68527;39.470;-0.376;2023-05-21T13:16:26;7.00;;;3.90;;
79124;SDS011;68527;39.470;-0.376;2023-05-21T13:18:51;4.90;;;3.50;;
79124;SDS011;68527;39.470;-0.376;2023-05-21T13:21:17;5.70;;;4.00;;
79124;SDS011;68527;39.470;-0.376;2023-05-21T13:23:42;6.10;;;3.80;;
79124;SDS011;68527;39.470;-0.376;2023-05-21T13:26:08;5.90;;;3.80;;
79124;SDS011;68527;39.470;-0.376;2023-05-21T13:28:33;5.70;;;3.80;;
79124;SDS011;68527;39.470;-0.376;2023-05-21T13:30:59;5.50;;;3.60;;
79124;SDS011;68527;39.470;-0.376;2023-05-21T13:33:25;5.50;;;3.60;;
79124;SDS011;68527;39.470;-0.376;2023-05-21T13:35:50;5.40;;;3.30;;
79124;SDS011;68527;39.470;-0.376;2023-05-21T13:38:16;6.10;;;3.60;;
79124;SDS011;68527;39.470;-0.376;2023-05-21T13:40:42;7.40;;;3.60;;
79124;SDS011;68527;39.470;-0.376;2023-05-21T13:43:08;5.00;;;3.60;;
79124;SDS011;68527;39.470;-0.376;2023-05-21T13:45:33;7.30;;;3.80;;
79124;SDS011;68527;39.470;-0.376;2023-05-21T13:47:59;5.50;;;3.50;;
79124;SDS011;68527;39.470;-0.376;2023-05-21T13:50:24;6.00;;;3.50;;
79124;SDS011;68527;39.470;-0.376;2023-05-21T13:52:50;5.70;;;3.50;;
79124;SDS011;68527;39.470;-0.376;2023-05-21T13:55:15;5.00;;;3.50;;
79124;SDS011;68527;39.470;-0.376;2023-05-21T13:57:41;7.20;;;3.70;;
79124;SDS011;68527;39.470;-0.376;2023-05-21T14:00:08;10.10;;;4.10;;
79124;SDS011;68527;39.470;-0.376;2023-05-21T14:02:36;8.30;;;3.80;;
79124;SDS011;68527;39.470;-0.376;2023-05-21T14:05:02;14.40;;;3.90;;
79124;SDS011;68527;39.470;-0.376;2023-05-21T14:07:27;8.80;;;4.00;;
79124;SDS011;68527;39.470;-0.376;2023-05-21T14:09:53;10.10;;;4.60;;
79124;SDS011;68527;39.470;-0.376;2023-05-21T14:12:18;8.70;;;3.60;;
79124;SDS011;68527;39.470;-0.376;2023-05-21T14:14:44;6.60;;;3.40;;
79124;SDS011;68527;39.470;-0.376;2023-05-21T14:17:10;9.80;;;3.60;;
79124;SDS011;68527;39.470;-0.376;2023-05-21T14:19:35;8.40;;;3.60;;
79124;SDS011;68527;39.470;-0.376;2023-05-21T14:22:01;6.00;;;3.20;;
79124;SDS011;68527;39.470;-0.376;2023-05-21T14:24:26;7.40;;;3.70;;
79124;SDS011;68527;39.470;-0.376;2023-05-21T14:26:52;10.90;;;3.30;;
79124;SDS011;68527;39.470;-0.376;2023-05-21T14:29:17;9.10;;;3.70;;
79124;SDS011;68527;39.470;-0.376;2023-05-21T14:31:43;6.80;;;3.30;;
79124;SDS011;68527;39.470;-0.376;2023-05-21T14:34:10;7.90;;;3.90;;
79124;SDS011;68527;39.470;-0.376;2023-05-21T14:36:35;5.60;;;3.30;;
79124;SDS011;68527;39.470;-0.376;2023-05-21T14:39:01;7.00;;;3.30;;
79124;SDS011;68527;39.470;-0.376;2023-05-21T14:41:26;8.60;;;3.40;;
79124;SDS011;68527;39.470;-0.376;2023-05-21T14:43:53;5.80;;;3.10;;
79124;SDS011;68527;39.470;-0.376;2023-05-21T14:46:19;5.50;;;2.80;;
79124;SDS011;68527;39.470;-0.376;2023-05-21T14:48:45;5.60;;;2.70;;
79124;SDS011;68527;39.470;-0.376;2023-05-21T14:51:11;4.90;;;2.60;;
79124;SDS011;68527;39.470;-0.376;2023-05-21T14:53:37;6.30;;;3.30;;
79124;SDS011;68527;39.470;-0.376;2023-05-21T14:56:04;4.10;;;2.80;;
79124;SDS011;68527;39.470;-0.376;2023-05-21T14:58:30;5.60;;;3.00;;
79124;SDS011;68527;39.470;-0.376;2023-05-21T15:03:21;5.20;;;3.00;;
79124;SDS011;68527;39.470;-0.376;2023-05-21T15:05:47;3.80;;;3.00;;
79124;SDS011;68527;39.470;-0.376;2023-05-21T15:08:12;5.40;;;3.00;;
79124;SDS011;68527;39.470;-0.376;2023-05-21T15:10:38;4.90;;;3.00;;
79124;SDS011;68527;39.470;-0.376;2023-05-21T15:13:03;7.80;;;3.10;;
79124;SDS011;68527;39.470;-0.376;2023-05-21T15:15:29;5.60;;;3.50;;
79124;SDS011;68527;39.470;-0.376;2023-05-21T15:17:54;4.20;;;2.70;;
79124;SDS011;68527;39.470;-0.376;2023-05-21T15:20:21;5.00;;;3.00;;
79124;SDS011;68527;39.470;-0.376;2023-05-21T15:22:47;5.30;;;3.20;;
79124;SDS011;68527;39.470;-0.376;2023-05-21T15:25:13;4.80;;;3.10;;
79124;SDS011;68527;39.470;-0.376;2023-05-21T15:27:38;4.30;;;2.90;;
79124;SDS011;68527;39.470;-0.376;2023-05-21T15:30:04;4.90;;;3.00;;
79124;SDS011;68527;39.470;-0.376;2023-05-21T15:32:30;6.60;;;3.30;;
79124;SDS011;68527;39.470;-0.376;2023-05-21T15:34:56;6.00;;;3.00;;
79124;SDS011;68527;39.470;-0.376;2023-05-21T15:39:47;3.20;;;2.50;;
79124;SDS011;68527;39.470;-0.376;2023-05-21T15:42:17;4.80;;;2.90;;
79124;SDS011;68527;39.470;-0.376;2023-05-21T15:44:42;6.50;;;2.90;;
79124;SDS011;68527;39.470;-0.376;2023-05-21T15:47:08;4.30;;;3.10;;
79124;SDS011;68527;39.470;-0.376;2023-05-21T15:49:34;4.30;;;2.80;;
79124;SDS011;68527;39.470;-0.376;2023-05-21T15:51:59;4.50;;;3.00;;
79124;SDS011;68527;39.470;-0.376;2023-05-21T15:54:28;5.70;;;3.40;;
79124;SDS011;68527;39.470;-0.376;2023-05-21T15:56:54;7.90;;;3.40;;
79124;SDS011;68527;39.470;-0.376;2023-05-21T15:59:20;4.70;;;2.80;;
79124;SDS011;68527;39.470;-0.376;2023-05-21T16:01:46;5.80;;;2.70;;
79124;SDS011;68527;39.470;-0.376;2023-05-21T16:04:12;4.70;;;2.80;;